| Record Date MM/DD/YYYY | Record Julian Date NNN day of the year | Air Temperature Max (Degrees Fahrenheit F) | Time Max Air Temperature HH:MM:SS This is the time of max air temperature standard time. | Air Temperature Min (Degrees Fahrenheit F) | Time Min Air Temperature HH:MM:SS This is the time of min air temperature standard time. | Air Temperature Observed (Degrees Fahrenheit F) This is an instantaneous reading for air temperature at 7:00:00 standard time. | Relative Humidity Max (Percent) | Time Max Relative Humidity HH:MM:SS This is the time of max relative humidity standard time. | Relative Humidity Min (Percent) | Time Min Relative Humidity HH:MM:SS This is the time of min relative humidity standard time. | Relative Humidity Observed (Percent) This is an instantaneous reading at 7:00:00 standard time. | Precipitation (Inches n.nn) total rain fall that occurred for the day. | Pan Evaporation (Inches n.nn) total evaporation that occured for the day. | Wind Run (Miles) Wind travel for the day. | Wind Speed (Miles Per Hour) Resultant / Average speed for the day. | Wind Direction (Degrees) Resultant Direction for the day | Solar Radiation (Langley's) that occurred for the day. | Soil Temperature Max at 2 inch depth (Degrees Fahrenheit F) that occurred during the day. | Time Max Soil temperature at 2 inches HH:MM:SS This is the time of max 2 inch soil temperature standard time. | Soil Temperature Min at 2 inch depth (Degrees Fahrenheit F) that occurred during the day. | Time Min Soil temperature at 2 inches HH:MM:SS This is the time of min 2 inch soil temperature standard time. | Soil Temperature Observed at 2 inch depth (Degrees Fahrenheit F) This is an instantaneous reading 2 inch soil temperature at 7:00:00 standard time. | Soil Temperature Max at 4 inch depth (Degrees Fahrenheit F) that occurred during the day. | Time Max Soil temperature at 4 inches HH:MM:SS This is the time of max 4 inch soil temperature standard time. | Soil Temperature Min at 4 inch depth (Degrees Fahrenheit F) that occurred during the day. | Time Min Soil temperature at 4 inches HH:MM:SS This is the time of min 4 inch soil temperature standard time. | Soil Temperature Observed at 4 inch depth (Degrees Fahrenheit F) This is an instantaneous reading 4 inch soil temperature at 7:00:00 standard time. | DD50 Degree Days 50 Fahrenheit. | Adjusted DD50 Degree Days 50 Fahrenheit adjusted for latitude. | DD60 Degree Days 60 Fahrenheit. |
|---|---|---|---|---|---|---|---|---|---|---|---|---|---|---|---|---|---|---|---|---|---|---|---|---|---|---|---|---|---|---|
| 04/08/2026 | 98 | 82 | 15:29:04 | 52 | 5:41:04 | 56 | 76 | 5:42:02 | 27 | 14:52:01 | 68 | 0 | 114 | 4.8 | 145 | 454 | 81 | 14:13:01 | 57 | 6:08:05 | 57 | 76 | 16:24:04 | 59 | 7:07:05 | 59 | 17 | 18.17 | 7 | |
| 04/09/2026 | 99 | 81 | 15:50:05 | 53 | 5:31:02 | 60 | 78 | 5:30:00 | 33 | 16:03:03 | 64 | 0 | 111 | 4.6 | 150 | 478 | 84 | 14:58:03 | 58 | 6:11:03 | 59 | 78 | 16:08:03 | 61 | 6:56:02 | 61 | 17 | 18.21 | 7 | |
| 04/10/2026 | 100 | 84 | 15:21:03 | 54 | 4:44:01 | 61 | 87 | 4:45:02 | 34 | 15:51:04 | 73 | 0 | 64 | 2.7 | 174 | 454 | 86 | 13:07:01 | 61 | 6:13:00 | 61 | 80 | 16:14:05 | 63 | 7:01:04 | 63 | 19 | 20.24 | 9 | |
| 04/11/2026 | 101 | 86 | 13:05:04 | 57 | 5:07:05 | 64 | 90 | 5:10:05 | 34 | 12:50:05 | 79 | 0 | 75 | 3.1 | 168 | 406 | 86 | 15:17:04 | 63 | 6:09:02 | 64 | 81 | 15:46:05 | 65 | 6:57:04 | 65 | 21.5 | 22.77 | 11.5 | |
| 04/12/2026 | 102 | 87 | 14:34:02 | 60 | 5:47:04 | 65 | 85 | 6:13:00 | 33 | 13:20:05 | 78 | 0 | 163 | 6.8 | 183 | 406 | 83 | 14:51:04 | 65 | 6:24:01 | 65 | 78 | 15:38:00 | 66 | 6:55:01 | 66 | 23.5 | 24.8 | 13.5 | |
| 04/13/2026 | 103 | 84 | 13:30:00 | 69 | 4:00:02 | 70 | 82 | 6:37:02 | 54 | 13:32:01 | 82 | 0 | 151 | 6.3 | 188 | 263 | 81 | 13:49:01 | 69 | 6:09:04 | 69 | 78 | 14:43:00 | 70 | 7:06:04 | 70 | 26.5 | 27.34 | 16.5 | |
| 04/14/2026 | 104 | 87 | 15:33:05 | 67 | 5:33:01 | 69 | 86 | 5:44:00 | 43 | 14:48:02 | 83 | 0 | 151 | 6.3 | 194 | 454 | 87 | 14:57:03 | 68 | 5:48:03 | 69 | 82 | 16:21:05 | 69 | 6:31:02 | 69 | 27 | 27.37 | 17 | |
| 04/15/2026 | 105 | 87 | 14:54:05 | 67 | 5:51:01 | 69 | 83 | 5:55:01 | 35 | 14:30:00 | 81 | 0 | 153 | 6.4 | 196 | 454 | 87 | 14:13:03 | 70 | 6:19:00 | 70 | 83 | 15:42:05 | 71 | 6:55:03 | 71 | 27 | 27.4 | 17 | |
| 04/16/2026 | 106 | 87 | 15:34:04 | 66 | 3:47:01 | 68 | 93 | 3:38:04 | 40 | 15:39:03 | 91 | 0.03 | 110 | 4.6 | 196 | 311 | 85 | 14:48:02 | 71 | 6:30:05 | 71 | 81 | 16:29:03 | 71 | 7:59:02 | 72 | 26.5 | 27.43 | 16.5 | |
| 04/17/2026 | 107 | 89 | 14:44:04 | 67 | 2:50:00 | 72 | 85 | 4:13:02 | 39 | 15:00:02 | 78 | 0 | 151 | 6.3 | 188 | 454 | 88 | 14:39:00 | 70 | 4:01:03 | 71 | 84 | 16:02:03 | 71 | 6:24:03 | 71 | 28 | 27.46 | 18 | |
| 04/18/2026 | 108 | 75 | 0:45:01 | 50 | 23:51:00 | 71 | 96 | 12:07:01 | 71 | 0:00:00 | 79 | 0.1 | 185 | 7.7 | 353 | 72 | 75 | 0:00:00 | 60 | 23:59:04 | 72 | 76 | 0:00:00 | 63 | 23:59:05 | 73 | 12.5 | 13.99 | 2.5 | |
| 04/19/2026 | 109 | 72 | 15:25:01 | 44 | 5:38:02 | 46 | 97 | 6:21:05 | 23 | 15:53:00 | 96 | 0 | 83 | 3.5 | 337 | 502 | 80 | 15:03:02 | 54 | 6:09:05 | 55 | 76 | 16:00:00 | 58 | 7:08:03 | 58 | 8 | 9.52 | 0 | |
| 04/20/2026 | 110 | 79 | 15:47:00 | 44 | 4:40:01 | 53 | 94 | 5:40:04 | 25 | 15:57:05 | 80 | 0 | 58 | 2.4 | 197 | 502 | 85 | 15:02:03 | 56 | 6:07:01 | 58 | 80 | 15:58:02 | 60 | 6:37:01 | 60 | 11.5 | 13.05 | 1.5 | |
| 04/21/2026 | 111 | 82 | 13:23:00 | 49 | 4:37:02 | 57 | 86 | 4:42:00 | 23 | 16:03:05 | 77 | 0 | 90 | 3.7 | 197 | 430 | 82 | 13:52:02 | 60 | 5:52:01 | 61 | 77 | 14:49:05 | 63 | 6:48:04 | 63 | 15.5 | 17.07 | 5.5 | |
| 04/22/2026 | 112 | 85 | 14:14:00 | 50 | 4:51:05 | 61 | 85 | 5:57:02 | 25 | 13:59:00 | 71 | 0 | 90 | 3.7 | 180 | 478 | 86 | 14:46:03 | 61 | 5:58:01 | 62 | 81 | 15:34:04 | 63 | 6:40:00 | 63 | 17.5 | 19.1 | 7.5 | |
| 04/23/2026 | 113 | 86 | 14:36:05 | 65 | 0:00:02 | 69 | 81 | 7:04:04 | 35 | 15:57:03 | 81 | 0 | 138 | 5.8 | 176 | 430 | 86 | 15:01:04 | 68 | 5:27:02 | 69 | 81 | 15:51:03 | 69 | 6:39:01 | 69 | 25.5 | 27.13 | 15.5 | |
| 04/24/2026 | 114 | 76 | 9:14:02 | 60 | 11:12:03 | 68 | 96 | 23:59:02 | 56 | 0:00:00 | 82 | 0.77 | 148 | 6.2 | 153 | 120 | 76 | 9:54:00 | 64 | 23:41:01 | 70 | 74 | 10:43:03 | 66 | 23:59:04 | 70 | 18 | 19.66 | 8 | |
| 04/25/2026 | 115 | 80 | 15:52:03 | 60 | 5:18:01 | 62 | 97 | 5:48:02 | 63 | 13:24:03 | 97 | 0.18 | 65 | 2.7 | 17 | 454 | 84 | 13:44:04 | 62 | 5:50:00 | 63 | 79 | 16:00:01 | 64 | 6:22:02 | 64 | 20 | 21.69 | 10 | |
| 04/26/2026 | 116 | 84 | 15:36:00 | 65 | 5:44:00 | 69 | 95 | 0:53:00 | 50 | 13:48:03 | 88 | 0 | 89 | 3.7 | 154 | 478 | 86 | 13:48:04 | 67 | 5:59:00 | 68 | 80 | 14:17:01 | 68 | 6:18:05 | 68 | 24.5 | 26.21 | 14.5 | |
| 04/27/2026 | 117 | 82 | 17:39:03 | 71 | 0:07:04 | 73 | 93 | 6:10:00 | 73 | 23:59:00 | 92 | 0 | 159 | 6.6 | 182 | 191 | 79 | 13:11:03 | 70 | 5:24:03 | 71 | 76 | 16:51:03 | 71 | 5:51:01 | 71 | 26.5 | 27.74 | 16.5 | |
| 04/28/2026 | 118 | 80 | 12:31:05 | 70 | 23:25:05 | 73 | 96 | 23:59:05 | 73 | 0:05:04 | 88 | 0.1 | 116 | 4.8 | 181 | 143 | 80 | 12:53:00 | 71 | 23:58:02 | 72 | 77 | 13:39:04 | 72 | 6:09:05 | 72 | 25 | 26.76 | 15 | |
| 04/29/2026 | 119 | 71 | 11:11:02 | 62 | 23:58:00 | 68 | 97 | 5:29:01 | 78 | 11:13:01 | 94 | 0.18 | 156 | 6.5 | 360 | 263 | 75 | 12:33:05 | 64 | 23:58:05 | 69 | 73 | 12:55:05 | 66 | 23:58:05 | 70 | 16.5 | 18.29 | 6.5 | |
| 04/30/2026 | 120 | 67 | 12:19:03 | 56 | 23:04:00 | 57 | 90 | 2:59:02 | 50 | 15:40:02 | 76 | 0 | 139 | 5.8 | 36 | 382 | 75 | 13:02:00 | 59 | 6:16:03 | 60 | 72 | 13:59:00 | 62 | 6:43:03 | 62 | 11.5 | 13.31 | 1.5 | |
| 05/01/2026 | 121 | 67 | 15:10:01 | 54 | 23:58:01 | 56 | 91 | 3:14:00 | 47 | 15:27:03 | 85 | 0 | 118 | 4.9 | 17 | 263 | 71 | 15:36:00 | 59 | 5:40:00 | 60 | 69 | 16:47:04 | 61 | 6:24:03 | 61 | 10.5 | 12.34 | 0.5 | |
| 05/02/2026 | 122 | 74 | 14:05:00 | 46 | 5:21:04 | 57 | 90 | 23:50:02 | 29 | 11:02:04 | 73 | 0 | 90 | 3.8 | 336 | 526 | 84 | 13:52:02 | 54 | 5:42:04 | 56 | 78 | 15:04:02 | 57 | 6:14:03 | 58 | 10 | 11.86 | 0 | |
| 05/03/2026 | 123 | 78 | 15:53:00 | 46 | 4:46:02 | 55 | 93 | 4:54:00 | 31 | 13:49:00 | 76 | 0 | 85 | 3.5 | 186 | 574 | 87 | 14:53:01 | 55 | 5:48:01 | 57 | 81 | 15:59:01 | 59 | 6:19:03 | 59 | 12 | 13.89 | 2 | |
| 05/04/2026 | 124 | 82 | 14:22:04 | 58 | 4:23:03 | 64 | 83 | 4:29:01 | 33 | 13:30:00 | 71 | 0 | 147 | 6.1 | 205 | 550 | 88 | 14:20:04 | 63 | 5:46:05 | 64 | 82 | 15:29:05 | 65 | 6:37:02 | 65 | 20 | 21.91 | 10 | |
| 05/05/2026 | 125 | 75 | 14:30:04 | 62 | 5:05:02 | 65 | 85 | 9:14:00 | 62 | 0:00:00 | 76 | 0 | 156 | 6.5 | 184 | 120 | 73 | 15:35:05 | 66 | 5:53:04 | 67 | 72 | 18:13:02 | 68 | 6:21:03 | 68 | 18.5 | 20.43 | 8.5 | |
| 05/06/2026 | 126 | 75 | 1:59:03 | 53 | 11:21:04 | 54 | 97 | 5:55:00 | 71 | 2:45:01 | 96 | 0.76 | 184 | 7.7 | 15 | 96 | 71 | 2:50:03 | 59 | 23:59:01 | 64 | 71 | 2:56:02 | 61 | 23:55:01 | 66 | 14 | 15.95 | 4 | |
| 05/07/2026 | 127 | 70 | 14:25:02 | 51 | 5:23:03 | 57 | 96 | 5:39:01 | 45 | 15:53:01 | 84 | 0.01 | 96 | 4.0 | 10 | 502 | 79 | 14:35:01 | 56 | 5:53:00 | 58 | 74 | 15:28:03 | 59 | 6:08:02 | 59 | 10.5 | 12.47 | 0.5 | |
| Average | 79.8 | 57.6 | 62.97 | 89.43 | 44.5 | 81.3 | 0.07 | 121.17 | 373.67 | 81.67 | 62.67 | 64.4 | 77.67 | 64.7 | 65.53 | 18.7 | 20.12 | 8.77 | ||||||||||||
| Total | 2.13 | 561 | 603.56 | 263 |